sensor_id;sensor_type;location;lat;lon;timestamp;temperature;humidity
21318;DHT22;10818;50.830;6.524;2024-01-30T00:02:50;10.70;99.90
21318;DHT22;10818;50.830;6.524;2024-01-30T00:07:50;10.50;99.90
21318;DHT22;10818;50.830;6.524;2024-01-30T00:12:51;10.50;99.90
21318;DHT22;10818;50.830;6.524;2024-01-30T00:17:51;10.40;99.90
21318;DHT22;10818;50.830;6.524;2024-01-30T00:22:52;10.50;99.90
21318;DHT22;10818;50.830;6.524;2024-01-30T00:27:53;10.50;99.90
21318;DHT22;10818;50.830;6.524;2024-01-30T00:32:53;10.60;99.90
21318;DHT22;10818;50.830;6.524;2024-01-30T00:37:54;10.40;99.90
21318;DHT22;10818;50.830;6.524;2024-01-30T00:42:55;10.40;99.90
21318;DHT22;10818;50.830;6.524;2024-01-30T00:47:55;10.30;99.90
21318;DHT22;10818;50.830;6.524;2024-01-30T00:52:56;10.20;99.90
21318;DHT22;10818;50.830;6.524;2024-01-30T00:57:56;10.10;99.90
21318;DHT22;10818;50.830;6.524;2024-01-30T01:02:57;10.10;99.90
21318;DHT22;10818;50.830;6.524;2024-01-30T01:07:58;10.20;99.90
21318;DHT22;10818;50.830;6.524;2024-01-30T01:12:58;10.10;99.90
21318;DHT22;10818;50.830;6.524;2024-01-30T01:17:58;10.10;99.90
21318;DHT22;10818;50.830;6.524;2024-01-30T01:22:59;10.30;99.90
21318;DHT22;10818;50.830;6.524;2024-01-30T01:27:59;10.20;99.90
21318;DHT22;10818;50.830;6.524;2024-01-30T01:33:01;10.20;99.90
21318;DHT22;10818;50.830;6.524;2024-01-30T01:38:02;10.30;99.90
21318;DHT22;10818;50.830;6.524;2024-01-30T01:43:03;10.30;99.90
21318;DHT22;10818;50.830;6.524;2024-01-30T01:48:04;10.50;99.90
21318;DHT22;10818;50.830;6.524;2024-01-30T01:53:06;10.30;99.90
21318;DHT22;10818;50.830;6.524;2024-01-30T01:58:08;10.10;99.90
21318;DHT22;10818;50.830;6.524;2024-01-30T02:03:10;10.20;99.90
21318;DHT22;10818;50.830;6.524;2024-01-30T02:08:11;10.20;99.90
21318;DHT22;10818;50.830;6.524;2024-01-30T02:13:12;10.30;99.90
21318;DHT22;10818;50.830;6.524;2024-01-30T02:18:12;10.30;99.90
21318;DHT22;10818;50.830;6.524;2024-01-30T02:23:12;10.00;99.90
21318;DHT22;10818;50.830;6.524;2024-01-30T02:28:14;10.00;99.90
21318;DHT22;10818;50.830;6.524;2024-01-30T02:33:15;10.10;99.90
21318;DHT22;10818;50.830;6.524;2024-01-30T02:38:15;10.20;99.90
21318;DHT22;10818;50.830;6.524;2024-01-30T02:43:16;10.20;99.90
21318;DHT22;10818;50.830;6.524;2024-01-30T02:48:17;10.40;99.90
21318;DHT22;10818;50.830;6.524;2024-01-30T02:53:17;10.40;99.90
21318;DHT22;10818;50.830;6.524;2024-01-30T02:58:18;10.70;99.90
21318;DHT22;10818;50.830;6.524;2024-01-30T03:03:18;10.60;99.90
21318;DHT22;10818;50.830;6.524;2024-01-30T03:08:19;10.70;99.90
21318;DHT22;10818;50.830;6.524;2024-01-30T03:13:19;10.70;99.90
21318;DHT22;10818;50.830;6.524;2024-01-30T03:18:20;10.70;99.90
21318;DHT22;10818;50.830;6.524;2024-01-30T03:23:21;10.50;99.90
21318;DHT22;10818;50.830;6.524;2024-01-30T03:28:21;10.60;99.90
21318;DHT22;10818;50.830;6.524;2024-01-30T03:33:22;10.70;99.90
21318;DHT22;10818;50.830;6.524;2024-01-30T03:38:22;10.80;99.90
21318;DHT22;10818;50.830;6.524;2024-01-30T03:43:23;10.80;99.90
21318;DHT22;10818;50.830;6.524;2024-01-30T03:48:23;10.80;99.90
21318;DHT22;10818;50.830;6.524;2024-01-30T03:53:23;10.80;99.90
21318;DHT22;10818;50.830;6.524;2024-01-30T03:58:24;10.80;99.90
21318;DHT22;10818;50.830;6.524;2024-01-30T04:03:24;10.60;99.90
21318;DHT22;10818;50.830;6.524;2024-01-30T04:08:25;10.40;99.90
21318;DHT22;10818;50.830;6.524;2024-01-30T04:13:25;10.10;99.90
21318;DHT22;10818;50.830;6.524;2024-01-30T04:18:26;10.20;99.90
21318;DHT22;10818;50.830;6.524;2024-01-30T04:23:26;10.20;99.90
21318;DHT22;10818;50.830;6.524;2024-01-30T04:28:27;10.20;99.90
21318;DHT22;10818;50.830;6.524;2024-01-30T04:33:27;9.90;99.90
21318;DHT22;10818;50.830;6.524;2024-01-30T04:38:28;9.80;99.90
21318;DHT22;10818;50.830;6.524;2024-01-30T04:43:28;9.50;99.90
21318;DHT22;10818;50.830;6.524;2024-01-30T04:48:29;9.70;99.90
21318;DHT22;10818;50.830;6.524;2024-01-30T04:53:30;9.80;99.90
21318;DHT22;10818;50.830;6.524;2024-01-30T04:58:31;9.90;99.90
21318;DHT22;10818;50.830;6.524;2024-01-30T05:03:34;9.70;99.90
21318;DHT22;10818;50.830;6.524;2024-01-30T05:08:35;9.80;99.90
21318;DHT22;10818;50.830;6.524;2024-01-30T05:13:37;9.80;99.90
21318;DHT22;10818;50.830;6.524;2024-01-30T05:18:37;9.80;99.90
21318;DHT22;10818;50.830;6.524;2024-01-30T05:23:39;9.70;99.90
21318;DHT22;10818;50.830;6.524;2024-01-30T05:28:42;9.80;99.90
21318;DHT22;10818;50.830;6.524;2024-01-30T05:33:44;9.90;99.90
21318;DHT22;10818;50.830;6.524;2024-01-30T05:38:45;9.80;99.90
21318;DHT22;10818;50.830;6.524;2024-01-30T05:43:45;9.80;99.90
21318;DHT22;10818;50.830;6.524;2024-01-30T05:48:46;9.90;99.90
21318;DHT22;10818;50.830;6.524;2024-01-30T05:53:46;9.90;99.90
21318;DHT22;10818;50.830;6.524;2024-01-30T05:58:46;9.80;99.90
21318;DHT22;10818;50.830;6.524;2024-01-30T06:03:47;9.90;99.90
21318;DHT22;10818;50.830;6.524;2024-01-30T06:08:47;9.90;99.90
21318;DHT22;10818;50.830;6.524;2024-01-30T06:13:48;9.90;99.90
21318;DHT22;10818;50.830;6.524;2024-01-30T06:18:48;10.00;99.90
21318;DHT22;10818;50.830;6.524;2024-01-30T06:23:49;10.10;99.90
21318;DHT22;10818;50.830;6.524;2024-01-30T06:28:49;10.20;99.90
21318;DHT22;10818;50.830;6.524;2024-01-30T06:33:50;10.30;99.90
21318;DHT22;10818;50.830;6.524;2024-01-30T06:38:51;10.40;99.90
21318;DHT22;10818;50.830;6.524;2024-01-30T06:43:51;10.50;99.90
21318;DHT22;10818;50.830;6.524;2024-01-30T06:48:52;10.50;99.90
21318;DHT22;10818;50.830;6.524;2024-01-30T06:53:52;10.40;99.90
21318;DHT22;10818;50.830;6.524;2024-01-30T06:58:53;10.60;99.90
21318;DHT22;10818;50.830;6.524;2024-01-30T07:03:53;10.60;99.90
21318;DHT22;10818;50.830;6.524;2024-01-30T07:08:54;10.50;99.90
21318;DHT22;10818;50.830;6.524;2024-01-30T07:13:54;10.60;99.90
21318;DHT22;10818;50.830;6.524;2024-01-30T07:18:55;10.60;99.90
21318;DHT22;10818;50.830;6.524;2024-01-30T07:23:56;10.80;99.90
21318;DHT22;10818;50.830;6.524;2024-01-30T07:28:57;10.70;99.90
21318;DHT22;10818;50.830;6.524;2024-01-30T07:33:57;10.70;99.90
21318;DHT22;10818;50.830;6.524;2024-01-30T07:38:58;10.70;99.90
21318;DHT22;10818;50.830;6.524;2024-01-30T07:43:58;10.70;99.90
21318;DHT22;10818;50.830;6.524;2024-01-30T07:48:58;10.90;99.90
21318;DHT22;10818;50.830;6.524;2024-01-30T07:54:00;10.90;99.90
21318;DHT22;10818;50.830;6.524;2024-01-30T07:59:00;10.90;99.90
21318;DHT22;10818;50.830;6.524;2024-01-30T08:04:01;11.00;99.90
21318;DHT22;10818;50.830;6.524;2024-01-30T08:09:01;11.00;99.90
21318;DHT22;10818;50.830;6.524;2024-01-30T08:14:02;11.10;99.90
21318;DHT22;10818;50.830;6.524;2024-01-30T08:19:03;11.20;99.90
21318;DHT22;10818;50.830;6.524;2024-01-30T08:24:03;11.40;99.90
21318;DHT22;10818;50.830;6.524;2024-01-30T08:29:04;11.60;99.90
21318;DHT22;10818;50.830;6.524;2024-01-30T08:34:05;11.80;99.90
21318;DHT22;10818;50.830;6.524;2024-01-30T08:39:05;12.00;99.90
21318;DHT22;10818;50.830;6.524;2024-01-30T08:44:06;12.30;99.90
21318;DHT22;10818;50.830;6.524;2024-01-30T08:49:06;12.40;99.90
21318;DHT22;10818;50.830;6.524;2024-01-30T08:54:07;12.40;99.90
21318;DHT22;10818;50.830;6.524;2024-01-30T08:59:08;12.30;99.90
21318;DHT22;10818;50.830;6.524;2024-01-30T09:04:09;12.20;99.90
21318;DHT22;10818;50.830;6.524;2024-01-30T09:09:09;12.40;99.90
21318;DHT22;10818;50.830;6.524;2024-01-30T09:14:10;12.40;99.90
21318;DHT22;10818;50.830;6.524;2024-01-30T09:19:10;12.30;99.90
21318;DHT22;10818;50.830;6.524;2024-01-30T09:24:11;12.40;99.90
21318;DHT22;10818;50.830;6.524;2024-01-30T09:29:11;12.40;99.90
21318;DHT22;10818;50.830;6.524;2024-01-30T09:34:12;12.40;99.90
21318;DHT22;10818;50.830;6.524;2024-01-30T09:39:12;12.30;99.90
21318;DHT22;10818;50.830;6.524;2024-01-30T09:44:17;12.30;99.90
21318;DHT22;10818;50.830;6.524;2024-01-30T09:49:20;12.20;99.90
21318;DHT22;10818;50.830;6.524;2024-01-30T09:54:20;12.20;99.90
21318;DHT22;10818;50.830;6.524;2024-01-30T09:59:22;12.30;99.90
21318;DHT22;10818;50.830;6.524;2024-01-30T10:04:22;12.40;99.90
21318;DHT22;10818;50.830;6.524;2024-01-30T10:09:22;12.60;99.90
21318;DHT22;10818;50.830;6.524;2024-01-30T10:14:23;12.70;99.90
21318;DHT22;10818;50.830;6.524;2024-01-30T10:19:23;12.90;99.90
21318;DHT22;10818;50.830;6.524;2024-01-30T10:24:24;13.40;99.90
21318;DHT22;10818;50.830;6.524;2024-01-30T10:29:25;13.40;99.90
21318;DHT22;10818;50.830;6.524;2024-01-30T10:34:25;13.70;99.90
21318;DHT22;10818;50.830;6.524;2024-01-30T10:39:28;13.80;99.90
21318;DHT22;10818;50.830;6.524;2024-01-30T10:44:29;13.90;99.90
21318;DHT22;10818;50.830;6.524;2024-01-30T10:49:30;14.10;99.90
21318;DHT22;10818;50.830;6.524;2024-01-30T10:54:31;13.90;99.90
21318;DHT22;10818;50.830;6.524;2024-01-30T10:59:32;13.90;99.90
21318;DHT22;10818;50.830;6.524;2024-01-30T11:04:36;13.70;99.90
21318;DHT22;10818;50.830;6.524;2024-01-30T11:09:37;13.80;99.90
21318;DHT22;10818;50.830;6.524;2024-01-30T11:14:37;14.00;99.90
21318;DHT22;10818;50.830;6.524;2024-01-30T11:19:41;14.50;99.90
21318;DHT22;10818;50.830;6.524;2024-01-30T11:24:42;14.20;99.90
21318;DHT22;10818;50.830;6.524;2024-01-30T11:29:42;14.30;99.90
21318;DHT22;10818;50.830;6.524;2024-01-30T11:34:43;14.50;99.90
21318;DHT22;10818;50.830;6.524;2024-01-30T11:39:43;14.60;99.90
21318;DHT22;10818;50.830;6.524;2024-01-30T11:44:47;14.60;99.90
21318;DHT22;10818;50.830;6.524;2024-01-30T11:49:48;14.40;99.90
21318;DHT22;10818;50.830;6.524;2024-01-30T11:54:49;14.30;99.90
21318;DHT22;10818;50.830;6.524;2024-01-30T11:59:49;14.40;99.90
21318;DHT22;10818;50.830;6.524;2024-01-30T12:04:49;14.40;99.90
21318;DHT22;10818;50.830;6.524;2024-01-30T12:09:53;14.60;99.90
21318;DHT22;10818;50.830;6.524;2024-01-30T12:14:55;14.60;99.90
21318;DHT22;10818;50.830;6.524;2024-01-30T12:20:02;14.70;99.90
21318;DHT22;10818;50.830;6.524;2024-01-30T12:25:03;14.80;99.90
21318;DHT22;10818;50.830;6.524;2024-01-30T12:35:15;15.00;99.90
21318;DHT22;10818;50.830;6.524;2024-01-30T12:40:16;15.00;99.90
21318;DHT22;10818;50.830;6.524;2024-01-30T12:45:17;15.00;99.90
21318;DHT22;10818;50.830;6.524;2024-01-30T12:50:22;15.10;99.90
21318;DHT22;10818;50.830;6.524;2024-01-30T12:55:23;15.20;99.90
21318;DHT22;10818;50.830;6.524;2024-01-30T13:00:24;15.20;99.90
21318;DHT22;10818;50.830;6.524;2024-01-30T13:05:24;15.00;99.90
21318;DHT22;10818;50.830;6.524;2024-01-30T13:10:24;15.00;99.90
21318;DHT22;10818;50.830;6.524;2024-01-30T13:15:25;14.80;99.90
21318;DHT22;10818;50.830;6.524;2024-01-30T13:20:26;14.80;99.90
21318;DHT22;10818;50.830;6.524;2024-01-30T13:25:27;14.70;99.90
21318;DHT22;10818;50.830;6.524;2024-01-30T13:30:27;14.70;99.90
21318;DHT22;10818;50.830;6.524;2024-01-30T13:35:28;14.50;99.90
21318;DHT22;10818;50.830;6.524;2024-01-30T13:40:28;14.30;99.90
21318;DHT22;10818;50.830;6.524;2024-01-30T13:45:28;14.20;99.90
21318;DHT22;10818;50.830;6.524;2024-01-30T13:50:29;14.00;99.90
21318;DHT22;10818;50.830;6.524;2024-01-30T13:55:29;14.10;99.90
21318;DHT22;10818;50.830;6.524;2024-01-30T14:00:30;13.90;99.90
21318;DHT22;10818;50.830;6.524;2024-01-30T14:05:31;13.80;99.90
21318;DHT22;10818;50.830;6.524;2024-01-30T14:10:31;13.80;99.90
21318;DHT22;10818;50.830;6.524;2024-01-30T14:15:31;13.80;99.90
21318;DHT22;10818;50.830;6.524;2024-01-30T14:20:32;13.70;99.90
21318;DHT22;10818;50.830;6.524;2024-01-30T14:25:32;13.80;99.90
21318;DHT22;10818;50.830;6.524;2024-01-30T14:30:33;13.80;99.90
21318;DHT22;10818;50.830;6.524;2024-01-30T14:35:33;13.90;99.90
21318;DHT22;10818;50.830;6.524;2024-01-30T14:40:34;13.80;99.90
21318;DHT22;10818;50.830;6.524;2024-01-30T14:45:34;13.70;99.90
21318;DHT22;10818;50.830;6.524;2024-01-30T14:50:35;13.50;99.90
21318;DHT22;10818;50.830;6.524;2024-01-30T14:55:35;13.70;99.90
21318;DHT22;10818;50.830;6.524;2024-01-30T15:00:36;13.70;99.90
21318;DHT22;10818;50.830;6.524;2024-01-30T15:05:38;13.60;99.90
21318;DHT22;10818;50.830;6.524;2024-01-30T15:10:39;13.60;99.90
21318;DHT22;10818;50.830;6.524;2024-01-30T15:15:39;13.40;99.90
21318;DHT22;10818;50.830;6.524;2024-01-30T15:20:40;13.40;99.90
21318;DHT22;10818;50.830;6.524;2024-01-30T15:25:40;13.30;99.90
21318;DHT22;10818;50.830;6.524;2024-01-30T15:30:41;13.20;99.90
21318;DHT22;10818;50.830;6.524;2024-01-30T15:35:44;13.10;99.90
21318;DHT22;10818;50.830;6.524;2024-01-30T15:40:44;12.80;99.90
21318;DHT22;10818;50.830;6.524;2024-01-30T15:45:45;12.70;99.90
21318;DHT22;10818;50.830;6.524;2024-01-30T15:50:45;12.50;99.90
21318;DHT22;10818;50.830;6.524;2024-01-30T15:55:46;12.40;99.90
21318;DHT22;10818;50.830;6.524;2024-01-30T16:00:46;12.30;99.90
21318;DHT22;10818;50.830;6.524;2024-01-30T16:05:47;12.10;99.90
21318;DHT22;10818;50.830;6.524;2024-01-30T16:10:47;12.20;99.90
21318;DHT22;10818;50.830;6.524;2024-01-30T16:15:48;12.10;99.90
21318;DHT22;10818;50.830;6.524;2024-01-30T16:20:48;12.00;99.90
21318;DHT22;10818;50.830;6.524;2024-01-30T16:25:49;11.90;99.90
21318;DHT22;10818;50.830;6.524;2024-01-30T16:30:50;12.00;99.90
21318;DHT22;10818;50.830;6.524;2024-01-30T16:35:50;12.00;99.90
21318;DHT22;10818;50.830;6.524;2024-01-30T16:40:51;11.90;99.90
21318;DHT22;10818;50.830;6.524;2024-01-30T16:45:51;11.90;99.90
21318;DHT22;10818;50.830;6.524;2024-01-30T16:50:52;11.80;99.90
21318;DHT22;10818;50.830;6.524;2024-01-30T16:55:52;11.80;99.90
21318;DHT22;10818;50.830;6.524;2024-01-30T17:00:53;11.80;99.90
21318;DHT22;10818;50.830;6.524;2024-01-30T17:05:54;11.60;99.90
21318;DHT22;10818;50.830;6.524;2024-01-30T17:10:58;11.60;99.90
21318;DHT22;10818;50.830;6.524;2024-01-30T17:15:59;11.50;99.90
21318;DHT22;10818;50.830;6.524;2024-01-30T17:20:59;11.50;99.90
21318;DHT22;10818;50.830;6.524;2024-01-30T17:26:00;11.50;99.90
21318;DHT22;10818;50.830;6.524;2024-01-30T17:31:00;11.40;99.90
21318;DHT22;10818;50.830;6.524;2024-01-30T17:36:02;11.30;99.90
21318;DHT22;10818;50.830;6.524;2024-01-30T17:41:03;11.20;99.90
21318;DHT22;10818;50.830;6.524;2024-01-30T17:46:04;11.10;99.90
21318;DHT22;10818;50.830;6.524;2024-01-30T17:51:04;11.20;99.90
21318;DHT22;10818;50.830;6.524;2024-01-30T17:56:05;11.20;99.90
21318;DHT22;10818;50.830;6.524;2024-01-30T18:01:06;11.00;99.90
21318;DHT22;10818;50.830;6.524;2024-01-30T18:06:07;11.10;99.90
21318;DHT22;10818;50.830;6.524;2024-01-30T18:11:07;11.10;99.90
21318;DHT22;10818;50.830;6.524;2024-01-30T18:16:08;11.00;99.90
21318;DHT22;10818;50.830;6.524;2024-01-30T18:21:08;11.00;99.90
21318;DHT22;10818;50.830;6.524;2024-01-30T18:26:09;11.00;99.90
21318;DHT22;10818;50.830;6.524;2024-01-30T18:31:10;11.00;99.90
21318;DHT22;10818;50.830;6.524;2024-01-30T18:36:10;10.90;99.90
21318;DHT22;10818;50.830;6.524;2024-01-30T18:41:11;10.90;99.90
21318;DHT22;10818;50.830;6.524;2024-01-30T18:46:11;10.90;99.90
21318;DHT22;10818;50.830;6.524;2024-01-30T18:51:14;10.80;99.90
21318;DHT22;10818;50.830;6.524;2024-01-30T18:56:16;10.70;99.90
21318;DHT22;10818;50.830;6.524;2024-01-30T19:01:18;10.70;99.90
21318;DHT22;10818;50.830;6.524;2024-01-30T19:06:19;10.60;99.90
21318;DHT22;10818;50.830;6.524;2024-01-30T19:11:20;10.60;99.90
21318;DHT22;10818;50.830;6.524;2024-01-30T19:16:20;10.70;99.90
21318;DHT22;10818;50.830;6.524;2024-01-30T19:21:21;10.60;99.90
21318;DHT22;10818;50.830;6.524;2024-01-30T19:26:21;10.60;99.90
21318;DHT22;10818;50.830;6.524;2024-01-30T19:31:22;10.50;99.90
21318;DHT22;10818;50.830;6.524;2024-01-30T19:36:22;10.60;99.90
21318;DHT22;10818;50.830;6.524;2024-01-30T19:41:23;10.50;99.90
21318;DHT22;10818;50.830;6.524;2024-01-30T19:46:23;10.40;99.90
21318;DHT22;10818;50.830;6.524;2024-01-30T19:51:24;10.30;99.90
21318;DHT22;10818;50.830;6.524;2024-01-30T19:56:24;10.30;99.90
21318;DHT22;10818;50.830;6.524;2024-01-30T20:01:25;10.40;99.90
21318;DHT22;10818;50.830;6.524;2024-01-30T20:06:25;10.40;99.90
21318;DHT22;10818;50.830;6.524;2024-01-30T20:11:26;10.40;99.90
21318;DHT22;10818;50.830;6.524;2024-01-30T20:16:34;10.40;99.90
21318;DHT22;10818;50.830;6.524;2024-01-30T20:21:35;10.30;99.90
21318;DHT22;10818;50.830;6.524;2024-01-30T20:26:36;10.00;99.90
21318;DHT22;10818;50.830;6.524;2024-01-30T20:31:36;10.10;99.90
21318;DHT22;10818;50.830;6.524;2024-01-30T20:36:37;10.20;99.90
21318;DHT22;10818;50.830;6.524;2024-01-30T20:41:38;10.10;99.90
21318;DHT22;10818;50.830;6.524;2024-01-30T20:46:39;10.00;99.90
21318;DHT22;10818;50.830;6.524;2024-01-30T20:51:39;10.00;99.90
21318;DHT22;10818;50.830;6.524;2024-01-30T20:56:39;10.00;99.90
21318;DHT22;10818;50.830;6.524;2024-01-30T21:01:40;10.10;99.90
21318;DHT22;10818;50.830;6.524;2024-01-30T21:06:41;10.10;99.90
21318;DHT22;10818;50.830;6.524;2024-01-30T21:11:41;10.10;99.90
21318;DHT22;10818;50.830;6.524;2024-01-30T21:16:42;10.10;99.90
21318;DHT22;10818;50.830;6.524;2024-01-30T21:21:42;10.10;99.90
21318;DHT22;10818;50.830;6.524;2024-01-30T21:26:43;10.10;99.90
21318;DHT22;10818;50.830;6.524;2024-01-30T21:31:44;10.10;99.90
21318;DHT22;10818;50.830;6.524;2024-01-30T21:36:45;10.00;99.90
21318;DHT22;10818;50.830;6.524;2024-01-30T21:41:45;10.00;99.90
21318;DHT22;10818;50.830;6.524;2024-01-30T21:46:47;10.00;99.90
21318;DHT22;10818;50.830;6.524;2024-01-30T21:51:47;10.00;99.90
21318;DHT22;10818;50.830;6.524;2024-01-30T21:56:50;10.00;99.90
21318;DHT22;10818;50.830;6.524;2024-01-30T22:01:50;10.00;99.90
21318;DHT22;10818;50.830;6.524;2024-01-30T22:06:51;9.90;99.90
21318;DHT22;10818;50.830;6.524;2024-01-30T22:11:51;9.80;99.90
21318;DHT22;10818;50.830;6.524;2024-01-30T22:16:52;9.80;99.90
21318;DHT22;10818;50.830;6.524;2024-01-30T22:21:52;9.70;99.90
21318;DHT22;10818;50.830;6.524;2024-01-30T22:26:53;9.60;99.90
21318;DHT22;10818;50.830;6.524;2024-01-30T22:31:53;9.60;99.90
21318;DHT22;10818;50.830;6.524;2024-01-30T22:36:53;9.60;99.90
21318;DHT22;10818;50.830;6.524;2024-01-30T22:41:54;9.70;99.90
21318;DHT22;10818;50.830;6.524;2024-01-30T22:46:54;9.70;99.90
21318;DHT22;10818;50.830;6.524;2024-01-30T22:51:55;9.70;99.90
21318;DHT22;10818;50.830;6.524;2024-01-30T22:56:55;9.60;99.90
21318;DHT22;10818;50.830;6.524;2024-01-30T23:01:56;9.60;99.90
21318;DHT22;10818;50.830;6.524;2024-01-30T23:06:57;9.60;99.90
21318;DHT22;10818;50.830;6.524;2024-01-30T23:11:57;9.60;99.90
21318;DHT22;10818;50.830;6.524;2024-01-30T23:16:59;9.60;99.90
21318;DHT22;10818;50.830;6.524;2024-01-30T23:21:59;9.60;99.90
21318;DHT22;10818;50.830;6.524;2024-01-30T23:27:00;9.40;99.90
21318;DHT22;10818;50.830;6.524;2024-01-30T23:32:00;9.40;99.90
21318;DHT22;10818;50.830;6.524;2024-01-30T23:37:00;9.50;99.90
21318;DHT22;10818;50.830;6.524;2024-01-30T23:42:01;9.50;99.90
21318;DHT22;10818;50.830;6.524;2024-01-30T23:47:01;9.40;99.90
21318;DHT22;10818;50.830;6.524;2024-01-30T23:52:04;9.30;99.90
21318;DHT22;10818;50.830;6.524;2024-01-30T23:57:05;9.30;99.90
